createdAt,value
2018-03-17T00:01:45.283Z,83.97
2018-03-17T00:04:11.894Z,79.85
2018-03-17T00:06:38.475Z,82.70
2018-03-17T00:09:05.046Z,63.25
2018-03-17T00:11:31.675Z,47.97
2018-03-17T00:13:59.008Z,35.75
2018-03-17T00:16:25.573Z,46.83
2018-03-17T00:18:52.907Z,46.60
2018-03-17T00:21:19.468Z,52.20
2018-03-17T00:23:46.063Z,46.92
2018-03-17T00:26:12.639Z,56.60
2018-03-17T00:28:39.955Z,26.48
2018-03-17T00:31:06.558Z,55.60
2018-03-17T00:33:33.151Z,54.00
2018-03-17T00:36:00.579Z,52.30
2018-03-17T00:38:27.235Z,52.38
2018-03-17T00:40:53.803Z,37.00
2018-03-17T00:43:20.381Z,44.47
2018-03-17T00:45:46.974Z,45.35
2018-03-17T00:48:13.601Z,57.13
2018-03-17T00:50:40.906Z,55.33
2018-03-17T00:53:07.481Z,59.67
2018-03-17T00:55:34.766Z,66.65
2018-03-17T00:58:01.443Z,62.83
2018-03-17T01:00:28.035Z,60.72
2018-03-17T01:02:54.590Z,67.90
2018-03-17T01:05:21.235Z,67.25
2018-03-17T01:07:47.876Z,81.75
2018-03-17T01:10:14.503Z,65.93
2018-03-17T01:12:41.081Z,79.65
2018-03-17T01:15:07.654Z,69.40
2018-03-17T01:17:34.234Z,62.62
2018-03-17T01:20:01.595Z,55.90
2018-03-17T01:22:28.959Z,48.38
2018-03-17T01:24:55.534Z,43.40
2018-03-17T01:27:22.126Z,40.53
2018-03-17T01:29:48.839Z,44.90
2018-03-17T01:32:15.413Z,46.37
2018-03-17T01:34:41.979Z,48.38
2018-03-17T01:37:08.585Z,49.47
2018-03-17T01:39:35.895Z,17.75
2018-03-17T01:42:02.527Z,6.22
2018-03-17T01:44:29.127Z,52.17
2018-03-17T01:46:56.487Z,55.47
2018-03-17T01:49:23.079Z,56.70
2018-03-17T01:51:49.669Z,58.33
2018-03-17T01:54:30.630Z,58.33
2018-03-17T01:56:57.993Z,62.17
2018-03-17T01:59:26.367Z,64.53
2018-03-17T02:01:52.922Z,61.05
2018-03-17T02:04:19.478Z,57.45
2018-03-17T02:06:46.152Z,58.60
2018-03-17T02:09:12.746Z,16.77
2018-03-17T02:11:39.323Z,59.05
2018-03-17T02:14:05.926Z,56.92
2018-03-17T02:16:32.494Z,58.90
2018-03-17T02:18:59.099Z,109.03
2018-03-17T02:21:26.685Z,62.60
2018-03-17T02:23:53.298Z,69.15
2018-03-17T02:26:19.878Z,57.20
2018-03-17T02:28:47.230Z,43.75
2018-03-17T02:31:14.584Z,42.53
2018-03-17T02:33:41.193Z,65.87
2018-03-17T02:36:07.766Z,60.45
2018-03-17T02:38:34.567Z,39.28
2018-03-17T02:41:01.159Z,92.88
2018-03-17T02:43:27.730Z,40.17
2018-03-17T02:45:54.307Z,70.47
2018-03-17T02:48:21.627Z,47.28
2018-03-17T02:50:48.221Z,99.72
2018-03-17T02:53:14.787Z,95.22
2018-03-17T02:55:41.379Z,71.65
2018-03-17T02:58:08.675Z,68.20
2018-03-17T03:00:35.291Z,69.40
2018-03-17T03:03:01.888Z,67.68
2018-03-17T03:05:29.217Z,68.95
2018-03-17T03:07:56.659Z,70.75
2018-03-17T03:10:23.266Z,73.20
2018-03-17T03:12:49.895Z,70.90
2018-03-17T03:15:16.459Z,67.97
2018-03-17T03:17:43.242Z,69.60
2018-03-17T03:20:09.870Z,70.12
2018-03-17T03:22:36.418Z,70.75
2018-03-17T03:25:03.834Z,70.50
2018-03-17T03:27:30.460Z,68.65
2018-03-17T03:29:57.656Z,73.12
2018-03-17T03:32:24.978Z,71.43
2018-03-17T03:34:51.560Z,72.40
2018-03-17T03:37:18.852Z,74.03
2018-03-17T03:39:46.302Z,70.57
2018-03-17T03:42:13.608Z,77.30
2018-03-17T03:44:40.286Z,97.45
2018-03-17T03:47:06.862Z,69.43
2018-03-17T03:49:33.458Z,68.12
2018-03-17T03:52:00.824Z,70.37
2018-03-17T03:54:27.413Z,79.80
2018-03-17T03:56:54.055Z,97.20
2018-03-17T03:59:21.658Z,78.40
2018-03-17T04:01:48.410Z,81.30
2018-03-17T04:04:14.989Z,77.00
2018-03-17T04:06:41.554Z,79.65
2018-03-17T04:09:08.630Z,78.85
2018-03-17T04:11:36.115Z,79.00
2018-03-17T04:14:02.716Z,79.35
2018-03-17T04:16:29.310Z,82.32
2018-03-17T04:18:55.906Z,80.80
2018-03-17T04:21:22.595Z,78.25
2018-03-17T04:23:50.447Z,82.07
2018-03-17T04:26:17.044Z,83.22
2018-03-17T04:28:43.738Z,82.18
2018-03-17T04:31:11.053Z,89.35
2018-03-17T04:33:37.622Z,87.43
2018-03-17T04:36:04.948Z,85.47
2018-03-17T04:38:31.527Z,83.57
2018-03-17T04:40:59.058Z,82.55
2018-03-17T04:43:26.610Z,90.00
2018-03-17T04:45:54.540Z,85.00
2018-03-17T04:48:21.131Z,85.47
2018-03-17T04:50:48.079Z,83.57
2018-03-17T04:53:15.376Z,84.35
2018-03-17T04:55:41.986Z,91.95
2018-03-17T04:58:09.304Z,78.05
2018-03-17T05:00:38.014Z,84.97
2018-03-17T05:03:05.286Z,83.00
2018-03-17T05:05:32.995Z,79.57
2018-03-17T05:08:00.347Z,87.18
2018-03-17T05:10:26.987Z,107.85
2018-03-17T05:12:53.952Z,93.18
2018-03-17T05:15:21.246Z,99.62
2018-03-17T05:17:47.820Z,78.95
2018-03-17T05:20:14.373Z,79.72
2018-03-17T05:22:41.033Z,83.35
2018-03-17T05:25:08.347Z,94.35
2018-03-17T05:27:34.974Z,94.87
2018-03-17T05:30:01.636Z,88.07
2018-03-17T05:32:28.940Z,132.20
2018-03-17T05:34:55.927Z,83.05
2018-03-17T05:37:22.530Z,81.32
2018-03-17T05:39:49.146Z,81.97
2018-03-17T05:42:15.765Z,84.18
2018-03-17T05:44:43.203Z,81.53
2018-03-17T05:47:09.801Z,80.15
2018-03-17T05:49:36.403Z,81.20
2018-03-17T05:52:03.015Z,78.95
2018-03-17T05:54:29.609Z,79.80
2018-03-17T05:56:56.181Z,78.10
2018-03-17T05:59:22.779Z,127.35
2018-03-17T06:01:49.494Z,82.60
2018-03-17T06:04:16.111Z,88.80
2018-03-17T06:06:42.693Z,83.72
2018-03-17T06:09:09.527Z,80.50
2018-03-17T06:11:36.152Z,81.72
2018-03-17T06:14:02.789Z,87.88
2018-03-17T06:16:31.043Z,88.53
2018-03-17T06:18:57.627Z,90.70
2018-03-17T06:21:24.974Z,85.07
2018-03-17T06:23:51.542Z,62.92
2018-03-17T06:26:18.137Z,83.60
2018-03-17T06:28:44.743Z,74.50
2018-03-17T06:31:12.047Z,73.47
2018-03-17T06:33:38.643Z,75.03
2018-03-17T06:36:05.272Z,79.30
2018-03-17T06:38:31.845Z,79.40
2018-03-17T06:40:58.506Z,80.65
2018-03-17T06:43:25.887Z,80.75
2018-03-17T06:45:53.302Z,86.90
2018-03-17T06:48:19.868Z,75.10
2018-03-17T06:50:46.447Z,87.53
2018-03-17T06:53:13.224Z,79.40
2018-03-17T06:55:39.810Z,93.55
2018-03-17T06:58:06.387Z,91.25
2018-03-17T07:00:33.024Z,106.28
2018-03-17T07:02:59.596Z,92.68
2018-03-17T07:05:26.180Z,85.03
2018-03-17T07:07:52.792Z,96.70
2018-03-17T07:10:20.099Z,102.38
2018-03-17T07:12:46.675Z,119.35
2018-03-17T07:15:13.310Z,113.30
2018-03-17T07:17:40.648Z,101.30
2018-03-17T07:20:07.242Z,97.95
2018-03-17T07:22:33.840Z,98.95
2018-03-17T07:25:00.583Z,99.47
2018-03-17T07:27:27.933Z,100.80
2018-03-17T07:29:54.587Z,95.38
2018-03-17T07:32:21.260Z,111.12
2018-03-17T07:34:47.875Z,102.43
2018-03-17T07:37:14.542Z,101.07
2018-03-17T07:39:41.814Z,102.47
2018-03-17T07:42:08.402Z,106.47
2018-03-17T07:44:35.730Z,99.93
2018-03-17T07:47:02.611Z,97.85
2018-03-17T07:49:29.207Z,90.78
2018-03-17T07:51:56.598Z,145.95
2018-03-17T07:54:23.188Z,99.93
2018-03-17T07:56:49.764Z,90.38
2018-03-17T07:59:16.513Z,97.53
2018-03-17T08:01:43.080Z,95.28
2018-03-17T08:04:09.638Z,91.47
2018-03-17T08:06:36.939Z,92.03
2018-03-17T08:09:04.203Z,97.75
2018-03-17T08:11:30.807Z,96.95
2018-03-17T08:13:57.555Z,120.25
2018-03-17T08:16:24.187Z,96.72
2018-03-17T08:18:50.805Z,108.45
2018-03-17T08:21:17.803Z,95.32
2018-03-17T08:23:44.392Z,110.12
2018-03-17T08:26:10.999Z,99.53
2018-03-17T08:28:38.270Z,98.97
2018-03-17T08:31:04.883Z,91.65
2018-03-17T08:33:31.476Z,98.22
2018-03-17T08:35:58.060Z,107.50
2018-03-17T08:38:24.948Z,99.53
2018-03-17T08:40:51.604Z,110.15
2018-03-17T08:43:18.186Z,106.47
2018-03-17T08:45:44.763Z,95.12
2018-03-17T08:48:11.366Z,102.55
2018-03-17T08:50:37.943Z,104.10
2018-03-17T08:53:04.606Z,100.47
2018-03-17T08:55:31.293Z,106.85
2018-03-17T08:57:57.961Z,122.07
2018-03-17T09:00:25.242Z,101.00
2018-03-17T09:02:51.858Z,104.47
2018-03-17T09:05:18.424Z,104.50
2018-03-17T09:07:45.030Z,103.40
2018-03-17T09:10:11.700Z,107.82
2018-03-17T09:12:38.338Z,102.78
2018-03-17T09:15:04.945Z,118.40
2018-03-17T09:17:31.530Z,105.20
2018-03-17T09:19:58.170Z,102.57
2018-03-17T09:22:26.446Z,107.43
2018-03-17T09:24:53.126Z,103.35
2018-03-17T09:27:19.744Z,100.85
2018-03-17T09:29:46.518Z,104.70
2018-03-17T09:32:13.104Z,102.22
2018-03-17T09:34:40.445Z,98.15
2018-03-17T09:37:07.798Z,92.32
2018-03-17T09:39:34.348Z,92.25
2018-03-17T09:42:00.954Z,96.85
2018-03-17T09:44:27.523Z,106.53
2018-03-17T09:46:55.127Z,94.97
2018-03-17T09:49:21.700Z,95.85
2018-03-17T09:51:48.277Z,102.55
2018-03-17T09:54:14.899Z,97.55
2018-03-17T09:56:41.470Z,93.35
2018-03-17T09:59:08.045Z,90.72
2018-03-17T10:01:34.676Z,92.03
2018-03-17T10:04:02.123Z,90.68
2018-03-17T10:06:28.705Z,89.87
2018-03-17T10:08:55.307Z,98.00
2018-03-17T10:11:22.703Z,102.55
2018-03-17T10:13:49.338Z,104.82
2018-03-17T10:16:15.966Z,115.57
2018-03-17T10:18:42.602Z,99.30
2018-03-17T10:21:10.018Z,99.75
2018-03-17T10:23:36.619Z,93.85
2018-03-17T10:26:03.283Z,105.97
2018-03-17T10:28:30.694Z,103.95
2018-03-17T10:30:58.343Z,107.75
2018-03-17T10:33:25.659Z,108.72
2018-03-17T10:35:55.000Z,112.85
2018-03-17T10:38:21.583Z,100.50
2018-03-17T10:40:48.156Z,96.80
2018-03-17T10:43:15.541Z,95.93
2018-03-17T10:45:42.154Z,108.57
2018-03-17T10:48:08.854Z,98.07
2018-03-17T10:50:35.422Z,101.05
2018-03-17T10:53:03.582Z,95.12
2018-03-17T10:55:30.196Z,108.37
2018-03-17T10:57:56.803Z,107.30
2018-03-17T11:00:26.337Z,111.53
2018-03-17T11:02:52.953Z,108.72
2018-03-17T11:05:19.631Z,118.57
2018-03-17T11:07:46.542Z,95.75
2018-03-17T11:10:13.140Z,101.97
2018-03-17T11:12:40.460Z,100.90
2018-03-17T11:15:07.056Z,87.28
2018-03-17T11:17:33.632Z,113.12
2018-03-17T11:20:00.419Z,111.15
2018-03-17T11:22:27.771Z,105.78
2018-03-17T11:24:55.348Z,100.12
2018-03-17T11:27:22.003Z,89.78
2018-03-17T11:29:48.571Z,93.62
2018-03-17T11:32:15.976Z,111.95
2018-03-17T11:34:43.263Z,94.07
2018-03-17T11:37:09.844Z,96.70
2018-03-17T11:39:36.438Z,91.28
2018-03-17T11:42:03.108Z,92.25
2018-03-17T11:44:29.687Z,104.12
2018-03-17T11:46:56.305Z,109.93
2018-03-17T11:49:22.868Z,106.15
2018-03-17T11:51:49.428Z,116.70
2018-03-17T11:54:16.367Z,115.40
2018-03-17T11:56:43.055Z,116.68
2018-03-17T11:59:09.677Z,121.85
2018-03-17T12:01:37.091Z,109.45
2018-03-17T12:04:03.755Z,115.12
2018-03-17T12:06:30.386Z,121.07
2018-03-17T12:08:57.300Z,119.70
2018-03-17T12:11:23.962Z,114.10
2018-03-17T12:13:50.524Z,110.63
2018-03-17T12:16:17.959Z,106.15
2018-03-17T12:18:44.597Z,111.18
2018-03-17T12:21:11.978Z,127.60
2018-03-17T12:23:38.641Z,106.43
2018-03-17T12:26:05.263Z,105.85
2018-03-17T12:28:31.856Z,122.57
2018-03-17T12:30:58.455Z,105.10
2018-03-17T12:33:25.065Z,119.18
2018-03-17T12:35:51.673Z,122.53
2018-03-17T12:38:18.276Z,116.55
2018-03-17T12:40:44.894Z,103.40
2018-03-17T12:43:11.501Z,92.57
2018-03-17T12:45:38.997Z,128.80
2018-03-17T12:48:05.588Z,107.78
2018-03-17T12:50:32.159Z,115.15
2018-03-17T12:52:58.782Z,148.98
2018-03-17T12:55:26.101Z,125.47
2018-03-17T12:57:52.761Z,127.65
2018-03-17T13:00:20.133Z,106.22
2018-03-17T13:02:46.739Z,106.07
2018-03-17T13:05:13.372Z,118.25
2018-03-17T13:07:39.987Z,109.40
2018-03-17T13:10:07.362Z,157.62
2018-03-17T13:12:34.097Z,112.12
2018-03-17T13:15:00.744Z,111.70
2018-03-17T13:17:27.331Z,111.45
2018-03-17T13:19:53.978Z,113.80
2018-03-17T13:22:20.622Z,108.28
2018-03-17T13:24:47.897Z,135.10
2018-03-17T13:30:23.788Z,170.73
2018-03-17T13:32:57.792Z,205.50
2018-03-17T13:35:43.469Z,167.62
2018-03-17T13:38:10.779Z,35.08
2018-03-17T13:40:42.160Z,44.65
2018-03-17T13:43:09.800Z,125.82
2018-03-17T13:45:36.828Z,108.82
2018-03-17T13:48:03.616Z,88.47
2018-03-17T13:50:31.155Z,163.98
2018-03-17T13:52:57.751Z,99.25
2018-03-17T13:55:25.095Z,123.55
2018-03-17T13:57:52.067Z,143.73
2018-03-17T14:00:19.095Z,129.30
2018-03-17T14:02:45.752Z,109.85
2018-03-17T14:05:13.359Z,105.22
2018-03-17T14:07:39.963Z,111.85
2018-03-17T14:10:06.596Z,109.82
2018-03-17T14:12:34.196Z,116.05
2018-03-17T14:15:00.812Z,118.37
2018-03-17T14:17:28.158Z,109.10
2018-03-17T14:19:54.820Z,109.22
2018-03-17T14:22:22.229Z,166.65
2018-03-17T14:24:49.060Z,109.75
2018-03-17T14:27:15.714Z,68.93
2018-03-17T14:29:42.342Z,105.30
2018-03-17T14:32:10.525Z,102.65
2018-03-17T14:34:37.190Z,98.30
2018-03-17T14:37:03.835Z,102.12
2018-03-17T14:39:30.477Z,105.93
2018-03-17T14:41:57.082Z,99.90
2018-03-17T14:44:23.776Z,97.68
2018-03-17T14:46:51.127Z,97.18
2018-03-17T14:49:18.556Z,98.15
2018-03-17T14:51:45.152Z,109.07
2018-03-17T14:54:11.880Z,104.65
2018-03-17T14:56:38.483Z,103.90
2018-03-17T14:59:05.886Z,115.75
2018-03-17T15:01:32.587Z,92.95
2018-03-17T15:03:59.591Z,109.90
2018-03-17T15:06:26.749Z,126.80
2018-03-17T15:08:53.376Z,115.75
2018-03-17T15:11:20.705Z,179.48
2018-03-17T15:13:48.286Z,115.12
2018-03-17T15:16:14.965Z,105.85
2018-03-17T15:18:41.676Z,106.53
2018-03-17T15:21:08.276Z,114.57
2018-03-17T15:23:35.653Z,113.93
2018-03-17T15:26:02.275Z,100.57
2018-03-17T15:28:29.265Z,119.78
2018-03-17T15:30:56.676Z,89.87
2018-03-17T15:33:24.058Z,122.05
2018-03-17T15:35:50.961Z,110.12
2018-03-17T15:38:17.933Z,117.05
2018-03-17T15:40:45.271Z,80.03
2018-03-17T15:43:13.195Z,115.35
2018-03-17T15:45:40.679Z,100.85
2018-03-17T15:48:08.024Z,97.35
2018-03-17T15:50:35.346Z,41.28
2018-03-17T15:53:02.700Z,63.22
2018-03-17T15:55:30.811Z,44.97
2018-03-17T15:57:57.425Z,25.83
2018-03-17T16:00:24.077Z,120.93
2018-03-17T16:02:51.395Z,110.00
2018-03-17T16:05:18.254Z,114.00
2018-03-17T16:07:45.637Z,117.32
2018-03-17T16:10:12.971Z,102.28
2018-03-17T16:12:39.600Z,106.93
2018-03-17T16:15:06.209Z,99.55
2018-03-17T16:17:32.858Z,94.43
2018-03-17T16:20:00.340Z,111.00
2018-03-17T16:22:26.936Z,102.97
2018-03-17T16:24:53.645Z,102.32
2018-03-17T16:27:20.288Z,106.93
2018-03-17T16:29:47.615Z,102.97
2018-03-17T16:32:15.056Z,111.68
2018-03-17T16:34:41.684Z,98.87
2018-03-17T16:37:09.849Z,110.88
2018-03-17T16:39:36.557Z,121.80
2018-03-17T16:42:03.215Z,129.05
2018-03-17T16:44:30.002Z,97.12
2018-03-17T16:46:57.411Z,104.12
2018-03-17T16:49:24.051Z,96.18
2018-03-17T16:51:50.690Z,103.87
2018-03-17T16:54:17.336Z,91.82
2018-03-17T16:56:44.002Z,94.62
2018-03-17T16:59:11.674Z,132.77
2018-03-17T17:01:40.576Z,110.43
2018-03-17T17:04:07.199Z,110.88
2018-03-17T17:06:33.826Z,104.28
2018-03-17T17:09:00.507Z,105.53
2018-03-17T17:11:28.073Z,101.12
2018-03-17T17:13:54.677Z,103.57
2018-03-17T17:16:21.320Z,97.57
2018-03-17T17:18:48.671Z,115.50
2018-03-17T17:21:15.340Z,106.07
2018-03-17T17:23:41.932Z,101.20
2018-03-17T17:26:09.321Z,100.43
2018-03-17T17:28:36.926Z,105.93
2018-03-17T17:31:04.335Z,109.03
2018-03-17T17:33:30.971Z,106.43
2018-03-17T17:35:57.747Z,103.55
2018-03-17T17:38:24.357Z,106.97
2018-03-17T17:40:50.987Z,107.10
2018-03-17T17:43:18.368Z,127.55
2018-03-17T17:45:45.498Z,101.00
2018-03-17T17:48:12.059Z,82.18
2018-03-17T17:50:38.683Z,112.65
2018-03-17T17:53:05.299Z,108.75
2018-03-17T17:55:31.928Z,101.57
2018-03-17T17:57:59.564Z,109.20
2018-03-17T18:00:26.150Z,107.18
2018-03-17T18:02:54.863Z,86.70
2018-03-17T18:05:21.905Z,105.70
2018-03-17T18:07:49.234Z,40.58
2018-03-17T18:10:15.844Z,107.07
2018-03-17T18:12:44.362Z,102.12
2018-03-17T18:15:10.990Z,115.03
2018-03-17T18:17:37.599Z,94.13
2018-03-17T18:20:04.938Z,93.18
2018-03-17T18:22:31.602Z,94.87
2018-03-17T18:24:59.150Z,94.93
2018-03-17T18:27:26.595Z,114.10
2018-03-17T18:29:54.917Z,144.05
2018-03-17T18:32:21.536Z,107.28
2018-03-17T18:34:48.887Z,89.82
2018-03-17T18:37:16.237Z,106.35
2018-03-17T18:39:42.848Z,19.33
2018-03-17T18:42:10.176Z,32.30
2018-03-17T18:44:38.381Z,40.30
2018-03-17T18:47:05.028Z,35.45
2018-03-17T18:49:32.407Z,27.77
2018-03-17T18:51:59.097Z,51.58
2018-03-17T18:54:26.454Z,23.55
2018-03-17T18:56:53.784Z,29.58
2018-03-17T18:59:21.162Z,25.12
2018-03-17T19:01:49.301Z,24.70
2018-03-17T19:04:17.046Z,29.37
2018-03-17T19:06:43.676Z,39.95
2018-03-17T19:09:10.802Z,27.98
2018-03-17T19:11:38.247Z,38.72
2018-03-17T19:14:06.388Z,31.83
2018-03-17T19:16:33.745Z,40.70
2018-03-17T19:19:01.221Z,20.00
2018-03-17T19:21:28.231Z,20.33
2018-03-17T19:23:54.896Z,24.60
2018-03-17T19:26:22.254Z,27.92
2018-03-17T19:28:48.859Z,21.17
2018-03-17T19:31:16.504Z,22.77
2018-03-17T19:33:44.712Z,20.02
2018-03-17T19:36:12.028Z,14.82
2018-03-17T19:38:39.007Z,48.70
2018-03-17T19:41:06.489Z,15.10
2018-03-17T19:43:33.092Z,15.80
2018-03-17T19:46:00.507Z,14.25
2018-03-17T19:48:27.903Z,11.40
2018-03-17T19:50:55.664Z,11.88
2018-03-17T19:53:22.996Z,9.60
2018-03-17T19:55:50.409Z,14.23
2018-03-17T19:58:19.352Z,7.47
2018-03-17T20:00:46.734Z,16.58
2018-03-17T20:03:14.160Z,5.70
2018-03-17T20:05:42.054Z,10.60
2018-03-17T20:08:09.628Z,41.13
2018-03-17T20:10:37.728Z,39.55
2018-03-17T20:13:05.091Z,40.88
2018-03-17T20:15:34.101Z,39.80
2018-03-17T20:18:02.410Z,39.72
2018-03-17T20:20:30.743Z,47.88
2018-03-17T20:22:58.136Z,44.20
2018-03-17T20:25:25.528Z,7.75
2018-03-17T20:27:52.952Z,38.00
2018-03-17T20:30:21.067Z,13.52
2018-03-17T20:32:47.705Z,20.48
2018-03-17T20:35:14.294Z,28.85
2018-03-17T20:37:42.508Z,13.32
2018-03-17T20:40:09.882Z,18.70
2018-03-17T20:42:37.839Z,12.60
2018-03-17T20:45:06.158Z,7.18
2018-03-17T20:47:33.559Z,9.60
2018-03-17T20:50:01.006Z,43.13
2018-03-17T20:52:28.394Z,42.20
2018-03-17T20:54:55.362Z,47.85
2018-03-17T20:57:22.734Z,42.85
2018-03-17T20:59:51.048Z,43.10
2018-03-17T21:02:18.884Z,42.03
2018-03-17T21:04:46.351Z,44.53
2018-03-17T21:07:13.742Z,19.48
2018-03-17T21:09:40.711Z,20.25
2018-03-17T21:12:08.580Z,10.30
2018-03-17T21:14:35.968Z,25.60
2018-03-17T21:17:03.325Z,11.93
2018-03-17T21:19:30.679Z,13.52
2018-03-17T21:21:58.490Z,10.02
2018-03-17T21:24:26.113Z,40.85
2018-03-17T21:26:53.483Z,42.13
2018-03-17T21:29:20.816Z,40.12
2018-03-17T21:31:48.682Z,42.10
2018-03-17T21:34:16.071Z,43.55
2018-03-17T21:36:43.459Z,42.33
2018-03-17T21:39:11.406Z,39.78
2018-03-17T21:41:39.138Z,38.40
2018-03-17T21:44:06.470Z,37.45
2018-03-17T21:46:33.849Z,43.55
2018-03-17T21:49:01.485Z,10.48
2018-03-17T21:51:28.846Z,29.85
2018-03-17T21:53:56.210Z,37.47
2018-03-17T21:56:23.564Z,37.80
2018-03-17T21:58:50.964Z,39.15
2018-03-17T22:01:18.285Z,39.30
2018-03-17T22:03:45.730Z,52.58
2018-03-17T22:06:12.327Z,23.95
2018-03-17T22:08:38.935Z,23.83
2018-03-17T22:11:06.275Z,17.62
2018-03-17T22:13:33.338Z,22.10
2018-03-17T22:16:00.687Z,20.42
2018-03-17T22:18:27.619Z,15.02
2018-03-17T22:20:54.991Z,20.08
2018-03-17T22:23:22.335Z,15.43
2018-03-17T22:25:49.663Z,14.80
2018-03-17T22:28:16.671Z,23.10
2018-03-17T22:30:44.055Z,24.33
2018-03-17T22:33:11.754Z,31.87
2018-03-17T22:35:39.152Z,19.75
2018-03-17T22:38:06.461Z,15.32
2018-03-17T22:40:33.436Z,20.23
2018-03-17T22:43:01.361Z,21.60
2018-03-17T22:45:30.063Z,22.15
2018-03-17T22:47:57.407Z,13.70
2018-03-17T22:50:24.630Z,19.92
2018-03-17T22:52:51.598Z,21.02
2018-03-17T22:55:19.739Z,14.68
2018-03-17T22:57:47.702Z,12.45
2018-03-17T23:00:15.075Z,18.77
2018-03-17T23:02:42.369Z,23.08
2018-03-17T23:05:09.722Z,40.30
2018-03-17T23:07:37.078Z,51.08
2018-03-17T23:10:05.434Z,38.78
2018-03-17T23:12:34.153Z,38.35
2018-03-17T23:15:01.531Z,45.10
2018-03-17T23:17:28.951Z,32.35
2018-03-17T23:19:55.946Z,17.05
2018-03-17T23:22:23.267Z,19.25
2018-03-17T23:24:50.582Z,22.85
2018-03-17T23:27:18.118Z,40.97
2018-03-17T23:29:45.558Z,31.40
2018-03-17T23:32:12.899Z,25.92
2018-03-17T23:34:41.298Z,40.03
2018-03-17T23:37:08.771Z,36.40
2018-03-17T23:39:36.175Z,38.33
2018-03-17T23:42:04.586Z,39.40
2018-03-17T23:44:32.154Z,37.33
2018-03-17T23:46:59.547Z,38.15
2018-03-17T23:49:27.935Z,40.60
2018-03-17T23:51:55.375Z,40.92
2018-03-17T23:54:23.458Z,37.58
2018-03-17T23:56:50.828Z,37.92
2018-03-17T23:59:18.182Z,36.20
